Time;durP1;ratioP1;P1;durP2;ratioP2;P2;SDS_P1;SDS_P2;PMS_P1;PMS_P2;Temp;Humidity;BMP_temperature;BMP_pressure;BME280_temperature;BME280_humidity;BME280_pressure;Samples;Min_cycle;Max_cycle;Signal;HPM_P1;HPM_P2
2022/03/08 00:00:31;;;;;;;14.75;11.88;;;;;;;;;;5019767;28;20189;-82
2022/03/08 00:02:57;;;;;;;19.98;13.80;;;;;;;;;;5018526;28;20182;-83
2022/03/08 00:05:23;;;;;;;15.55;12.98;;;;;;;;;;5003563;28;20190;-83
2022/03/08 00:07:50;;;;;;;16.13;11.65;;;;;;;;;;5008128;28;20206;-83
2022/03/08 00:10:16;;;;;;;17.25;11.52;;;;;;;;;;4988426;28;20194;-83
2022/03/08 00:12:43;;;;;;;13.45;10.95;;;;;;;;;;5004460;28;20254;-83
2022/03/08 00:15:11;;;;;;;17.45;12.05;;;;;;;;;;5003889;28;20207;-82
2022/03/08 00:17:38;;;;;;;18.70;13.05;;;;;;;;;;5007654;28;20193;-83
2022/03/08 00:20:06;;;;;;;15.45;11.35;;;;;;;;;;5016333;28;20179;-83
2022/03/08 00:22:32;;;;;;;17.98;11.90;;;;;;;;;;5001042;28;20191;-83
2022/03/08 00:25:01;;;;;;;16.33;12.95;;;;;;;;;;5018008;28;20186;-83
2022/03/08 00:27:27;;;;;;;15.40;11.93;;;;;;;;;;5019755;28;20171;-83
2022/03/08 00:29:53;;;;;;;15.10;11.68;;;;;;;;;;5021174;28;20183;-83
2022/03/08 00:32:19;;;;;;;17.40;12.88;;;;;;;;;;5012350;28;20205;-81
2022/03/08 00:34:45;;;;;;;14.05;12.48;;;;;;;;;;5021928;28;20640;-82
2022/03/08 00:37:11;;;;;;;16.67;12.65;;;;;;;;;;5021252;28;20179;-82
2022/03/08 00:39:37;;;;;;;19.80;13.75;;;;;;;;;;5007738;28;20241;-83
2022/03/08 00:42:04;;;;;;;14.80;10.77;;;;;;;;;;5016673;28;20254;-83
2022/03/08 00:44:30;;;;;;;17.33;12.70;;;;;;;;;;5009789;28;20251;-83
2022/03/08 00:46:56;;;;;;;16.75;11.60;;;;;;;;;;5005764;28;20259;-83
2022/03/08 00:49:22;;;;;;;16.67;12.43;;;;;;;;;;4989494;28;20214;-82
2022/03/08 00:51:48;;;;;;;17.83;12.40;;;;;;;;;;5007367;28;20239;-82
2022/03/08 00:54:14;;;;;;;15.00;11.45;;;;;;;;;;5000402;28;20198;-82
2022/03/08 00:56:40;;;;;;;19.13;13.70;;;;;;;;;;5018290;28;20259;-83
2022/03/08 00:59:06;;;;;;;14.70;12.40;;;;;;;;;;5004133;28;20195;-83
2022/03/08 01:01:32;;;;;;;19.02;12.60;;;;;;;;;;5005190;28;20249;-83
2022/03/08 01:03:58;;;;;;;16.25;11.23;;;;;;;;;;5021393;28;20187;-83
2022/03/08 01:06:24;;;;;;;17.30;12.98;;;;;;;;;;5022080;28;20191;-83
2022/03/08 01:08:50;;;;;;;18.77;13.73;;;;;;;;;;5016985;28;20207;-82
2022/03/08 01:11:16;;;;;;;16.85;12.55;;;;;;;;;;5016298;28;20205;-83
2022/03/08 01:13:42;;;;;;;16.38;12.77;;;;;;;;;;5016722;28;20222;-83
2022/03/08 01:16:08;;;;;;;19.23;12.95;;;;;;;;;;4989087;28;20688;-82
2022/03/08 01:18:34;;;;;;;18.63;13.18;;;;;;;;;;5018529;28;20203;-82
2022/03/08 01:21:00;;;;;;;15.15;11.50;;;;;;;;;;5003201;28;20676;-83
2022/03/08 01:23:26;;;;;;;17.92;14.02;;;;;;;;;;5016723;28;20191;-83
2022/03/08 01:25:52;;;;;;;17.23;13.07;;;;;;;;;;5020967;28;20187;-83
2022/03/08 01:28:18;;;;;;;18.23;13.13;;;;;;;;;;5021286;28;20186;-83
2022/03/08 01:30:44;;;;;;;18.05;12.05;;;;;;;;;;5016746;28;20175;-83
2022/03/08 01:33:10;;;;;;;20.27;11.90;;;;;;;;;;5016530;28;20191;-83
2022/03/08 01:35:36;;;;;;;17.45;12.70;;;;;;;;;;5005380;28;20207;-82
2022/03/08 01:38:02;;;;;;;15.07;12.55;;;;;;;;;;5016051;28;20191;-82
2022/03/08 01:40:29;;;;;;;16.02;11.73;;;;;;;;;;5004942;28;20290;-82
2022/03/08 01:42:55;;;;;;;16.80;12.98;;;;;;;;;;5021141;28;20622;-81
2022/03/08 01:45:22;;;;;;;17.85;12.80;;;;;;;;;;4999102;28;20202;-82
2022/03/08 01:47:48;;;;;;;21.98;12.75;;;;;;;;;;5015669;28;20187;-82
2022/03/08 01:50:15;;;;;;;17.98;12.23;;;;;;;;;;5020179;28;20411;-82
2022/03/08 01:52:41;;;;;;;17.38;12.50;;;;;;;;;;5017614;28;20184;-82
2022/03/08 01:55:08;;;;;;;17.40;12.80;;;;;;;;;;5019315;28;20194;-82
2022/03/08 01:57:34;;;;;;;18.45;12.32;;;;;;;;;;5021503;28;20179;-83
2022/03/08 02:00:00;;;;;;;17.77;13.60;;;;;;;;;;5011052;28;20183;-82
2022/03/08 02:02:26;;;;;;;25.00;13.55;;;;;;;;;;5004031;28;20209;-82
2022/03/08 02:04:53;;;;;;;17.10;13.00;;;;;;;;;;5004446;28;20183;-82
2022/03/08 02:07:19;;;;;;;17.67;13.82;;;;;;;;;;5004695;28;20182;-83
2022/03/08 02:09:45;;;;;;;17.08;12.70;;;;;;;;;;5020566;28;20194;-82
2022/03/08 02:12:11;;;;;;;16.98;12.70;;;;;;;;;;5011947;28;20191;-81
2022/03/08 02:14:38;;;;;;;16.30;11.80;;;;;;;;;;5004630;28;20179;-83
2022/03/08 02:17:04;;;;;;;16.65;12.70;;;;;;;;;;5018074;28;20187;-83
2022/03/08 02:19:30;;;;;;;16.42;12.75;;;;;;;;;;5004924;28;20186;-82
2022/03/08 02:21:56;;;;;;;17.77;11.85;;;;;;;;;;5004583;28;20588;-83
2022/03/08 02:24:22;;;;;;;18.35;12.93;;;;;;;;;;5016989;28;20191;-83
2022/03/08 02:26:48;;;;;;;14.50;12.77;;;;;;;;;;5014545;28;20197;-83
2022/03/08 02:29:15;;;;;;;17.73;13.10;;;;;;;;;;5016465;28;20214;-82
2022/03/08 02:31:41;;;;;;;20.27;13.65;;;;;;;;;;4989948;28;20215;-83
2022/03/08 02:34:07;;;;;;;16.50;12.40;;;;;;;;;;5018744;28;20210;-83
2022/03/08 02:36:33;;;;;;;19.40;12.82;;;;;;;;;;5005731;28;20171;-82
2022/03/08 02:38:59;;;;;;;19.65;12.77;;;;;;;;;;5015257;28;20218;-82
2022/03/08 02:41:25;;;;;;;16.98;11.85;;;;;;;;;;5016278;28;20263;-83
2022/03/08 02:43:51;;;;;;;15.50;12.00;;;;;;;;;;4996807;28;20207;-83
2022/03/08 02:46:17;;;;;;;18.83;13.10;;;;;;;;;;5017735;28;20214;-83
2022/03/08 02:48:43;;;;;;;18.33;14.77;;;;;;;;;;5005131;28;20171;-83
2022/03/08 02:51:09;;;;;;;16.10;11.65;;;;;;;;;;5003769;28;20191;-83
2022/03/08 02:53:35;;;;;;;18.67;12.98;;;;;;;;;;4998563;28;20194;-83
2022/03/08 02:56:02;;;;;;;19.27;13.90;;;;;;;;;;5009041;28;20269;-82
2022/03/08 02:58:28;;;;;;;16.67;13.27;;;;;;;;;;5003241;28;20187;-83
2022/03/08 03:00:54;;;;;;;17.55;12.70;;;;;;;;;;5004556;28;20330;-83
2022/03/08 03:03:20;;;;;;;17.00;13.15;;;;;;;;;;5004446;28;20190;-83
2022/03/08 03:05:46;;;;;;;18.10;12.90;;;;;;;;;;5012983;28;20187;-83
2022/03/08 03:08:12;;;;;;;21.38;13.55;;;;;;;;;;5005991;28;20271;-83
2022/03/08 03:10:39;;;;;;;17.00;13.10;;;;;;;;;;5013996;28;20247;-82
2022/03/08 03:13:05;;;;;;;15.45;13.35;;;;;;;;;;5016164;28;20189;-83
2022/03/08 03:15:31;;;;;;;16.10;13.10;;;;;;;;;;5001744;28;20629;-83
2022/03/08 03:17:58;;;;;;;19.42;12.98;;;;;;;;;;5019405;28;20202;-83
2022/03/08 03:20:26;;;;;;;15.10;12.13;;;;;;;;;;5014324;28;20186;-83
2022/03/08 03:22:52;;;;;;;16.73;12.45;;;;;;;;;;4999335;28;20199;-82
2022/03/08 03:25:18;;;;;;;19.25;13.02;;;;;;;;;;5002327;28;20187;-83
2022/03/08 03:27:44;;;;;;;19.50;13.15;;;;;;;;;;5018981;28;20179;-82
2022/03/08 03:30:12;;;;;;;16.55;12.07;;;;;;;;;;4993726;28;20184;-83
2022/03/08 03:32:38;;;;;;;20.90;14.18;;;;;;;;;;5012998;28;20191;-83
2022/03/08 03:35:04;;;;;;;17.20;13.43;;;;;;;;;;5003660;28;20191;-83
2022/03/08 03:37:30;;;;;;;15.60;11.43;;;;;;;;;;5003606;28;20269;-84
2022/03/08 03:39:56;;;;;;;15.65;12.00;;;;;;;;;;5012879;28;20715;-83
2022/03/08 03:42:22;;;;;;;21.27;12.68;;;;;;;;;;5018789;28;20226;-83
2022/03/08 03:44:48;;;;;;;16.15;12.43;;;;;;;;;;5013634;28;20175;-82
2022/03/08 03:47:14;;;;;;;17.58;13.23;;;;;;;;;;5012341;28;20196;-82
2022/03/08 03:49:40;;;;;;;18.05;14.20;;;;;;;;;;5003391;28;20189;-83
2022/03/08 03:52:07;;;;;;;19.85;13.60;;;;;;;;;;5018146;28;20218;-83
2022/03/08 03:54:33;;;;;;;18.73;12.95;;;;;;;;;;5004091;28;20217;-83
2022/03/08 03:56:59;;;;;;;19.67;13.65;;;;;;;;;;5002562;28;20183;-83
2022/03/08 03:59:25;;;;;;;16.77;13.68;;;;;;;;;;5003168;28;20190;-83
2022/03/08 04:01:51;;;;;;;15.60;12.38;;;;;;;;;;5006735;28;20213;-83
2022/03/08 04:04:17;;;;;;;17.33;13.30;;;;;;;;;;5003314;28;20245;-83
2022/03/08 04:06:43;;;;;;;22.30;14.38;;;;;;;;;;5015681;28;20184;-83
2022/03/08 04:09:09;;;;;;;19.02;13.80;;;;;;;;;;5033694;28;20187;-82
2022/03/08 04:11:35;;;;;;;19.63;13.15;;;;;;;;;;5008624;28;20259;-83
2022/03/08 04:14:01;;;;;;;18.17;12.73;;;;;;;;;;5016626;28;20191;-82
2022/03/08 04:16:27;;;;;;;20.98;13.98;;;;;;;;;;4988375;28;20206;-83
2022/03/08 04:18:53;;;;;;;22.05;14.88;;;;;;;;;;5018697;28;20183;-82
2022/03/08 04:21:19;;;;;;;17.70;13.27;;;;;;;;;;4997609;28;20202;-83
2022/03/08 04:23:45;;;;;;;21.17;14.75;;;;;;;;;;4996010;28;20191;-83
2022/03/08 04:26:11;;;;;;;22.92;14.50;;;;;;;;;;4993977;28;20239;-82
2022/03/08 04:28:37;;;;;;;19.25;14.65;;;;;;;;;;5015237;28;20182;-82
2022/03/08 04:31:03;;;;;;;21.77;15.13;;;;;;;;;;5009180;28;20211;-82
2022/03/08 04:33:29;;;;;;;25.05;13.10;;;;;;;;;;4995984;28;20692;-83
2022/03/08 04:35:55;;;;;;;22.40;14.88;;;;;;;;;;4993825;28;20219;-83
2022/03/08 04:38:21;;;;;;;19.40;12.85;;;;;;;;;;4997906;28;20254;-82
2022/03/08 04:40:47;;;;;;;15.85;12.48;;;;;;;;;;5016883;28;20203;-81
2022/03/08 04:43:13;;;;;;;20.83;13.75;;;;;;;;;;4997911;28;20186;-82
2022/03/08 04:45:39;;;;;;;19.27;13.55;;;;;;;;;;4989520;28;20449;-83
2022/03/08 04:48:05;;;;;;;21.38;15.05;;;;;;;;;;4999026;28;20210;-83
2022/03/08 04:50:31;;;;;;;21.65;14.05;;;;;;;;;;5017409;28;20550;-82
2022/03/08 04:52:57;;;;;;;17.70;14.00;;;;;;;;;;5002051;28;20187;-83
2022/03/08 04:55:23;;;;;;;20.98;15.00;;;;;;;;;;5001853;28;20206;-82
2022/03/08 04:57:49;;;;;;;18.00;14.35;;;;;;;;;;5003764;28;20168;-82
2022/03/08 05:00:16;;;;;;;20.92;14.63;;;;;;;;;;5002162;28;20211;-83
2022/03/08 05:02:44;;;;;;;20.63;13.77;;;;;;;;;;4996108;28;20215;-83
2022/03/08 05:05:10;;;;;;;15.57;13.02;;;;;;;;;;4993413;28;20187;-83
2022/03/08 05:07:36;;;;;;;21.92;14.60;;;;;;;;;;5001634;28;20217;-83
2022/03/08 05:10:06;;;;;;;23.75;15.60;;;;;;;;;;5001470;28;20215;-83
2022/03/08 05:12:32;;;;;;;23.98;15.43;;;;;;;;;;5004231;28;20268;-83
2022/03/08 05:14:58;;;;;;;20.85;14.40;;;;;;;;;;5021393;28;20195;-83
2022/03/08 05:17:24;;;;;;;18.17;13.80;;;;;;;;;;5004984;28;20190;-83
2022/03/08 05:19:50;;;;;;;20.63;14.07;;;;;;;;;;5017406;28;20191;-83
2022/03/08 05:22:16;;;;;;;21.52;14.25;;;;;;;;;;5005426;28;20254;-82
2022/03/08 05:24:42;;;;;;;24.05;14.18;;;;;;;;;;5017073;28;20713;-83
2022/03/08 05:27:08;;;;;;;21.42;15.25;;;;;;;;;;5009614;28;20192;-82
2022/03/08 05:29:35;;;;;;;21.73;14.55;;;;;;;;;;4998290;28;20193;-82
2022/03/08 05:32:01;;;;;;;19.95;14.23;;;;;;;;;;5005625;28;20249;-83
2022/03/08 05:34:28;;;;;;;22.88;14.80;;;;;;;;;;5011829;28;20195;-82
2022/03/08 05:36:55;;;;;;;18.30;13.80;;;;;;;;;;5018814;28;20210;-81
2022/03/08 05:39:21;;;;;;;21.33;14.32;;;;;;;;;;5020683;28;20320;-82
2022/03/08 05:41:47;;;;;;;19.20;13.73;;;;;;;;;;5008577;28;20269;-82
2022/03/08 05:44:13;;;;;;;23.48;14.95;;;;;;;;;;5014209;28;20187;-83
2022/03/08 05:46:39;;;;;;;22.25;15.23;;;;;;;;;;4990436;28;20198;-83
2022/03/08 05:49:05;;;;;;;20.40;14.65;;;;;;;;;;5005887;28;20476;-83
2022/03/08 05:51:31;;;;;;;19.60;13.68;;;;;;;;;;4997675;28;20356;-83
2022/03/08 05:53:57;;;;;;;21.48;15.93;;;;;;;;;;5012082;28;20439;-83
2022/03/08 05:56:23;;;;;;;19.17;13.40;;;;;;;;;;4995952;28;20370;-83
2022/03/08 05:58:49;;;;;;;18.73;13.25;;;;;;;;;;5005690;28;20251;-83
2022/03/08 06:01:15;;;;;;;19.38;13.18;;;;;;;;;;5020137;28;20572;-83
2022/03/08 06:03:41;;;;;;;17.85;12.70;;;;;;;;;;5020079;28;20175;-83
2022/03/08 06:06:08;;;;;;;27.42;16.08;;;;;;;;;;5018662;28;20532;-83
2022/03/08 06:08:34;;;;;;;21.73;13.63;;;;;;;;;;5020199;28;20175;-84
2022/03/08 06:11:00;;;;;;;18.25;14.15;;;;;;;;;;5015804;28;20195;-84
2022/03/08 06:13:26;;;;;;;20.55;14.35;;;;;;;;;;5004650;28;20190;-83
2022/03/08 06:15:52;;;;;;;22.17;14.13;;;;;;;;;;5005909;28;20175;-84
2022/03/08 06:18:18;;;;;;;22.25;15.93;;;;;;;;;;5003700;28;20218;-84
2022/03/08 06:20:44;;;;;;;22.10;14.98;;;;;;;;;;5019008;28;20215;-83
2022/03/08 06:23:10;;;;;;;21.70;15.07;;;;;;;;;;5014449;28;20218;-85
2022/03/08 06:25:36;;;;;;;18.70;14.30;;;;;;;;;;5020135;28;20243;-83
2022/03/08 06:28:02;;;;;;;20.92;14.13;;;;;;;;;;4989102;28;20168;-83
2022/03/08 06:30:28;;;;;;;18.48;12.40;;;;;;;;;;5000545;28;20168;-83
2022/03/08 06:32:54;;;;;;;19.40;14.45;;;;;;;;;;5015619;28;20175;-83
2022/03/08 06:35:20;;;;;;;19.33;13.10;;;;;;;;;;5012591;28;20528;-82
2022/03/08 06:37:46;;;;;;;19.50;13.65;;;;;;;;;;5019217;28;20187;-83
2022/03/08 06:40:12;;;;;;;18.13;13.45;;;;;;;;;;5019360;28;20226;-83
2022/03/08 06:42:38;;;;;;;20.70;13.15;;;;;;;;;;5005027;28;20203;-84
2022/03/08 06:45:05;;;;;;;18.98;14.02;;;;;;;;;;5003770;28;20270;-83
2022/03/08 06:47:31;;;;;;;23.92;15.80;;;;;;;;;;5004325;28;20187;-83
2022/03/08 06:49:58;;;;;;;20.65;14.32;;;;;;;;;;5012215;28;20274;-81
2022/03/08 06:52:24;;;;;;;22.75;14.57;;;;;;;;;;4995587;28;20207;-83
2022/03/08 06:54:50;;;;;;;23.20;15.60;;;;;;;;;;5002858;28;20183;-84
2022/03/08 06:57:16;;;;;;;20.83;15.10;;;;;;;;;;5003749;28;21176;-83
2022/03/08 06:59:42;;;;;;;19.90;15.05;;;;;;;;;;5007117;28;20270;-83
2022/03/08 07:02:09;;;;;;;19.00;14.13;;;;;;;;;;5004577;28;20213;-83
2022/03/08 07:04:35;;;;;;;21.13;15.45;;;;;;;;;;5002481;28;20556;-83
2022/03/08 07:07:01;;;;;;;21.90;14.80;;;;;;;;;;4995077;28;20175;-82
2022/03/08 07:09:27;;;;;;;23.70;14.23;;;;;;;;;;5004606;28;20191;-81
2022/03/08 07:11:56;;;;;;;23.25;14.48;;;;;;;;;;5011750;28;20191;-82
2022/03/08 07:14:22;;;;;;;23.15;16.95;;;;;;;;;;4994224;28;20179;-81
2022/03/08 07:16:48;;;;;;;19.52;13.35;;;;;;;;;;5000665;28;20198;-81
2022/03/08 07:19:15;;;;;;;21.10;14.95;;;;;;;;;;5001905;28;20217;-81
2022/03/08 07:21:41;;;;;;;24.38;16.27;;;;;;;;;;5020598;28;20253;-82
2022/03/08 07:24:07;;;;;;;21.65;14.93;;;;;;;;;;5003741;28;20206;-81
2022/03/08 07:26:33;;;;;;;22.02;15.00;;;;;;;;;;5014326;28;20214;-82
2022/03/08 07:28:59;;;;;;;20.20;14.85;;;;;;;;;;5007623;28;20190;-82
2022/03/08 07:31:25;;;;;;;19.85;14.15;;;;;;;;;;5003799;28;20176;-82
2022/03/08 07:33:51;;;;;;;29.10;16.75;;;;;;;;;;5019364;28;20182;-82
2022/03/08 07:36:18;;;;;;;21.25;16.30;;;;;;;;;;5013406;28;20217;-82
2022/03/08 07:38:44;;;;;;;21.25;13.90;;;;;;;;;;5014570;28;20249;-82
2022/03/08 07:41:10;;;;;;;19.75;13.77;;;;;;;;;;5007637;28;20207;-83
2022/03/08 07:43:36;;;;;;;27.10;15.73;;;;;;;;;;5015833;28;20179;-82
2022/03/08 07:46:06;;;;;;;29.45;18.13;;;;;;;;;;5017838;28;20214;-82
2022/03/08 07:48:32;;;;;;;39.60;17.63;;;;;;;;;;5018803;28;20197;-82
2022/03/08 07:50:59;;;;;;;21.65;15.52;;;;;;;;;;5014352;28;20282;-82
2022/03/08 07:53:25;;;;;;;30.70;19.45;;;;;;;;;;5010497;28;20250;-82
2022/03/08 07:55:51;;;;;;;24.65;17.45;;;;;;;;;;5013441;28;20202;-82
2022/03/08 07:58:17;;;;;;;23.33;16.60;;;;;;;;;;5018421;28;20187;-82
2022/03/08 08:00:43;;;;;;;23.60;16.40;;;;;;;;;;4990034;28;20179;-82
2022/03/08 08:03:09;;;;;;;24.70;16.70;;;;;;;;;;4998625;28;20182;-82
2022/03/08 08:05:35;;;;;;;25.13;16.55;;;;;;;;;;5007006;28;20191;-82
2022/03/08 08:08:02;;;;;;;24.58;16.98;;;;;;;;;;5017524;28;20258;-82
2022/03/08 08:10:28;;;;;;;23.42;16.83;;;;;;;;;;5015778;28;20187;-82
2022/03/08 08:12:54;;;;;;;22.55;17.05;;;;;;;;;;5015239;28;20171;-81
2022/03/08 08:15:20;;;;;;;28.58;17.13;;;;;;;;;;5016439;28;20182;-81
2022/03/08 08:17:46;;;;;;;24.25;16.83;;;;;;;;;;5005445;28;20179;-82
2022/03/08 08:20:12;;;;;;;25.73;17.13;;;;;;;;;;5003208;28;20262;-82
2022/03/08 08:22:38;;;;;;;22.70;15.52;;;;;;;;;;5002703;28;20199;-82
2022/03/08 08:25:05;;;;;;;26.95;18.75;;;;;;;;;;5018359;28;20175;-82
2022/03/08 08:27:31;;;;;;;27.52;16.95;;;;;;;;;;5018408;28;20510;-80
2022/03/08 08:29:57;;;;;;;23.38;18.33;;;;;;;;;;5009994;28;20178;-80
2022/03/08 08:32:23;;;;;;;21.55;16.88;;;;;;;;;;5000011;28;20510;-80
2022/03/08 08:34:49;;;;;;;24.05;17.23;;;;;;;;;;5000553;28;20274;-80
2022/03/08 08:37:15;;;;;;;24.77;17.00;;;;;;;;;;4999584;28;20649;-80
2022/03/08 08:39:41;;;;;;;22.70;17.75;;;;;;;;;;5000663;28;20222;-79
2022/03/08 08:42:07;;;;;;;24.88;16.13;;;;;;;;;;5000100;28;20545;-80
2022/03/08 08:44:34;;;;;;;22.70;17.38;;;;;;;;;;4999037;28;20742;-80
2022/03/08 08:47:00;;;;;;;30.27;20.08;;;;;;;;;;4998974;28;20274;-80
2022/03/08 08:49:26;;;;;;;27.42;19.48;;;;;;;;;;5006576;28;20175;-80
2022/03/08 08:51:52;;;;;;;28.40;19.17;;;;;;;;;;4992167;28;20180;-80
2022/03/08 08:54:18;;;;;;;23.10;17.75;;;;;;;;;;5004072;28;20195;-79
2022/03/08 08:56:44;;;;;;;28.02;17.10;;;;;;;;;;5003879;28;20183;-79
2022/03/08 08:59:11;;;;;;;24.98;17.15;;;;;;;;;;5000562;28;20215;-80
2022/03/08 09:01:37;;;;;;;28.15;18.85;;;;;;;;;;5004467;28;20211;-79
2022/03/08 09:04:03;;;;;;;28.60;18.65;;;;;;;;;;5020452;28;20198;-79
2022/03/08 09:06:29;;;;;;;27.10;18.38;;;;;;;;;;5019031;28;20206;-80
2022/03/08 09:08:56;;;;;;;25.48;17.38;;;;;;;;;;5018876;28;20183;-81
2022/03/08 09:11:22;;;;;;;26.13;18.23;;;;;;;;;;5005410;28;20194;-80
2022/03/08 09:13:48;;;;;;;22.45;17.85;;;;;;;;;;5010338;28;20441;-80
2022/03/08 09:16:15;;;;;;;26.63;17.65;;;;;;;;;;5018840;28;20187;-80
2022/03/08 09:18:41;;;;;;;30.55;19.33;;;;;;;;;;5021664;28;20186;-79
2022/03/08 09:21:07;;;;;;;24.92;18.60;;;;;;;;;;5002135;28;20238;-79
2022/03/08 09:23:33;;;;;;;27.35;18.48;;;;;;;;;;4999750;28;20661;-79
2022/03/08 09:25:59;;;;;;;23.88;18.25;;;;;;;;;;5014777;28;20676;-79
2022/03/08 09:28:25;;;;;;;25.95;19.30;;;;;;;;;;4989906;28;20171;-78
2022/03/08 09:30:51;;;;;;;23.80;19.13;;;;;;;;;;4990708;28;20186;-77
2022/03/08 09:33:17;;;;;;;24.88;17.42;;;;;;;;;;5004640;28;20198;-77
2022/03/08 09:35:43;;;;;;;24.05;17.25;;;;;;;;;;5019355;28;20187;-78
2022/03/08 09:38:11;;;;;;;26.63;18.85;;;;;;;;;;5002380;28;20237;-78
2022/03/08 09:40:38;;;;;;;29.70;18.48;;;;;;;;;;5004953;28;20195;-78
2022/03/08 09:43:04;;;;;;;27.38;18.35;;;;;;;;;;5020605;28;20274;-79
2022/03/08 09:45:30;;;;;;;23.55;18.33;;;;;;;;;;5019794;28;20183;-78
2022/03/08 09:47:56;;;;;;;29.83;19.50;;;;;;;;;;5016435;28;20189;-77
2022/03/08 09:50:22;;;;;;;24.63;18.13;;;;;;;;;;5017389;28;20254;-79
2022/03/08 09:52:48;;;;;;;27.20;20.10;;;;;;;;;;5004057;28;20187;-78
2022/03/08 09:55:15;;;;;;;24.15;19.00;;;;;;;;;;5018523;28;20218;-80
2022/03/08 09:57:42;;;;;;;27.33;19.92;;;;;;;;;;5004065;28;20182;-79
2022/03/08 10:00:09;;;;;;;25.33;18.27;;;;;;;;;;5007683;28;20186;-79
2022/03/08 10:02:49;;;;;;;29.02;19.52;;;;;;;;;;5007163;28;20211;-78
2022/03/08 10:05:15;;;;;;;30.77;20.58;;;;;;;;;;5005470;28;20234;-78
2022/03/08 10:08:01;;;;;;;29.70;19.88;;;;;;;;;;5009848;28;20179;-78
2022/03/08 10:10:27;;;;;;;27.55;19.20;;;;;;;;;;5004846;28;20182;-78
2022/03/08 10:12:56;;;;;;;27.52;19.85;;;;;;;;;;5004495;28;20175;-78
2022/03/08 10:15:22;;;;;;;29.15;20.70;;;;;;;;;;4994608;28;20652;-79
2022/03/08 10:17:48;;;;;;;30.45;20.33;;;;;;;;;;5002362;28;20222;-78
2022/03/08 10:20:28;;;;;;;27.80;19.13;;;;;;;;;;5004758;28;20254;-78
2022/03/08 10:22:54;;;;;;;32.00;20.65;;;;;;;;;;5014906;28;20225;-79
2022/03/08 10:25:20;;;;;;;30.08;20.17;;;;;;;;;;5002940;28;20179;-78
2022/03/08 10:27:52;;;;;;;28.40;20.38;;;;;;;;;;5003841;28;20214;-79
2022/03/08 10:30:18;;;;;;;31.00;19.77;;;;;;;;;;5002229;28;20194;-79
2022/03/08 10:32:46;;;;;;;28.33;20.13;;;;;;;;;;5001684;28;20183;-79
2022/03/08 10:35:21;;;;;;;29.83;19.88;;;;;;;;;;5001573;28;20270;-78
2022/03/08 10:37:47;;;;;;;25.95;18.67;;;;;;;;;;4990909;28;20217;-78
2022/03/08 10:40:14;;;;;;;27.60;19.15;;;;;;;;;;5012070;28;20231;-77
2022/03/08 10:42:41;;;;;;;28.45;20.33;;;;;;;;;;5018483;28;20273;-77
2022/03/08 10:45:12;;;;;;;26.60;20.40;;;;;;;;;;5004154;28;20233;-77
2022/03/08 10:47:58;;;;;;;28.90;19.88;;;;;;;;;;5000708;28;20683;-78
2022/03/08 10:50:26;;;;;;;29.67;20.05;;;;;;;;;;5018275;28;20189;-77
2022/03/08 10:52:53;;;;;;;28.92;19.73;;;;;;;;;;4999964;28;20541;-77
2022/03/08 10:55:21;;;;;;;29.33;19.58;;;;;;;;;;5003090;28;20225;-78
2022/03/08 10:57:54;;;;;;;28.25;19.13;;;;;;;;;;4989189;28;20691;-77
2022/03/08 11:00:23;;;;;;;27.25;18.98;;;;;;;;;;5002267;28;20218;-78
2022/03/08 11:02:55;;;;;;;26.90;18.40;;;;;;;;;;5000247;28;20199;-78
2022/03/08 11:05:22;;;;;;;25.30;20.23;;;;;;;;;;5002039;28;20269;-77
2022/03/08 11:07:49;;;;;;;31.88;19.85;;;;;;;;;;5018861;28;20210;-77
2022/03/08 11:10:15;;;;;;;27.13;19.30;;;;;;;;;;5010131;28;20198;-77
2022/03/08 11:12:41;;;;;;;30.70;20.55;;;;;;;;;;5003787;28;20179;-78
2022/03/08 11:15:08;;;;;;;28.38;20.40;;;;;;;;;;4994069;28;20216;-77
2022/03/08 11:17:35;;;;;;;30.48;20.67;;;;;;;;;;5001032;28;20219;-77
2022/03/08 11:20:06;;;;;;;28.63;20.70;;;;;;;;;;5002853;28;20678;-77
2022/03/08 11:22:32;;;;;;;23.40;18.02;;;;;;;;;;4989392;28;20229;-78
2022/03/08 11:24:59;;;;;;;29.65;21.00;;;;;;;;;;5003576;28;20186;-77
2022/03/08 11:27:25;;;;;;;27.58;20.73;;;;;;;;;;5004093;28;20179;-77
2022/03/08 11:29:51;;;;;;;29.13;20.73;;;;;;;;;;5013923;28;20186;-77
2022/03/08 11:32:20;;;;;;;29.80;20.88;;;;;;;;;;4999993;28;20629;-78
2022/03/08 11:34:49;;;;;;;27.25;20.20;;;;;;;;;;5005118;28;20529;-78
2022/03/08 11:37:18;;;;;;;30.77;21.27;;;;;;;;;;4997329;28;20195;-77
2022/03/08 11:39:44;;;;;;;26.70;19.70;;;;;;;;;;5002385;28;20231;-77
2022/03/08 11:42:26;;;;;;;27.80;19.80;;;;;;;;;;5000164;28;20213;-77
2022/03/08 11:45:16;;;;;;;29.33;21.40;;;;;;;;;;5002629;28;20537;-78
2022/03/08 11:47:46;;;;;;;34.10;22.10;;;;;;;;;;4998866;28;20221;-77
2022/03/08 11:50:19;;;;;;;32.38;19.25;;;;;;;;;;5002784;28;20186;-77
2022/03/08 11:52:50;;;;;;;28.05;20.05;;;;;;;;;;5003119;28;20187;-77
2022/03/08 11:55:17;;;;;;;28.15;20.35;;;;;;;;;;5015709;28;20187;-77
2022/03/08 11:57:52;;;;;;;26.05;19.70;;;;;;;;;;5019017;28;20183;-77
2022/03/08 12:00:19;;;;;;;27.05;20.67;;;;;;;;;;5013693;28;20187;-77
2022/03/08 12:02:46;;;;;;;24.45;19.60;;;;;;;;;;5007251;28;20349;-77
2022/03/08 12:05:31;;;;;;;31.55;21.55;;;;;;;;;;4999712;28;20230;-77
2022/03/08 12:07:57;;;;;;;25.92;20.00;;;;;;;;;;4997063;28;20187;-77
2022/03/08 12:10:24;;;;;;;27.33;19.70;;;;;;;;;;5001158;28;20183;-79
2022/03/08 12:12:53;;;;;;;27.02;21.55;;;;;;;;;;5017885;28;20449;-77
2022/03/08 12:15:19;;;;;;;27.03;21.70;;;;;;;;;;5001819;28;20205;-79
2022/03/08 12:18:03;;;;;;;25.42;21.35;;;;;;;;;;5001256;28;20445;-78
2022/03/08 12:20:29;;;;;;;25.33;21.73;;;;;;;;;;5000811;28;20190;-78
2022/03/08 12:23:09;;;;;;;24.73;21.17;;;;;;;;;;5004519;28;20378;-79
2022/03/08 12:25:35;;;;;;;27.90;21.97;;;;;;;;;;5004698;28;20442;-78
2022/03/08 12:28:02;;;;;;;25.10;22.40;;;;;;;;;;5015152;28;20529;-78
2022/03/08 12:30:42;;;;;;;28.43;22.60;;;;;;;;;;5022631;28;20422;-78
2022/03/08 12:33:09;;;;;;;25.43;21.40;;;;;;;;;;5003924;28;20934;-78
2022/03/08 12:35:35;;;;;;;25.20;21.60;;;;;;;;;;5018184;28;20438;-79
2022/03/08 12:38:05;;;;;;;26.47;22.10;;;;;;;;;;4994762;28;20468;-78
2022/03/08 12:40:32;;;;;;;24.70;22.00;;;;;;;;;;5002232;28;20480;-78
2022/03/08 12:43:03;;;;;;;27.73;22.33;;;;;;;;;;5001958;28;20516;-78
2022/03/08 12:45:31;;;;;;;26.80;22.77;;;;;;;;;;4996586;28;20823;-79
2022/03/08 12:48:05;;;;;;;29.97;24.10;;;;;;;;;;5002289;28;20436;-79
2022/03/08 12:50:37;;;;;;;25.70;20.50;;;;;;;;;;5018765;28;20462;-77
2022/03/08 12:53:03;;;;;;;23.00;20.10;;;;;;;;;;5002885;28;20492;-79
2022/03/08 12:55:36;;;;;;;26.17;22.00;;;;;;;;;;5011163;28;20637;-77
2022/03/08 12:58:05;;;;;;;22.90;20.47;;;;;;;;;;5013664;28;20460;-78
2022/03/08 13:00:32;;;;;;;25.80;21.47;;;;;;;;;;5019504;28;20426;-75
2022/03/08 13:02:58;;;;;;;25.63;19.27;;;;;;;;;;5003567;28;20493;-75
2022/03/08 13:05:27;;;;;;;23.77;20.80;;;;;;;;;;4998023;28;20757;-76
2022/03/08 13:07:54;;;;;;;24.90;21.60;;;;;;;;;;5003671;28;20525;-75
2022/03/08 13:10:20;;;;;;;26.80;20.83;;;;;;;;;;5005430;28;20487;-75
2022/03/08 13:12:54;;;;;;;22.97;20.57;;;;;;;;;;5022498;28;20412;-76
2022/03/08 13:15:22;;;;;;;26.83;22.80;;;;;;;;;;5005625;28;20402;-76
2022/03/08 13:17:49;;;;;;;27.10;21.60;;;;;;;;;;5002173;28;20424;-76
2022/03/08 13:20:25;;;;;;;26.37;21.33;;;;;;;;;;5005782;28;20497;-76
2022/03/08 13:22:51;;;;;;;28.37;21.57;;;;;;;;;;5001709;28;20473;-76
2022/03/08 13:25:19;;;;;;;26.20;20.70;;;;;;;;;;5020402;28;20438;-76
2022/03/08 13:27:48;;;;;;;26.10;21.23;;;;;;;;;;5021019;28;20426;-75
2022/03/08 13:30:17;;;;;;;24.10;18.93;;;;;;;;;;5020291;28;20427;-76
2022/03/08 13:32:43;;;;;;;28.43;21.03;;;;;;;;;;4999111;28;20781;-76
2022/03/08 13:35:12;;;;;;;23.03;20.43;;;;;;;;;;5005236;28;20441;-76
2022/03/08 13:37:48;;;;;;;25.23;19.70;;;;;;;;;;5014965;28;20434;-75
2022/03/08 13:40:24;;;;;;;28.47;22.40;;;;;;;;;;5004883;28;20802;-76
2022/03/08 13:42:50;;;;;;;27.23;23.17;;;;;;;;;;5018648;28;20473;-75
2022/03/08 13:45:16;;;;;;;24.10;20.60;;;;;;;;;;5034477;28;20463;-76
2022/03/08 13:47:42;;;;;;;22.90;20.50;;;;;;;;;;4999213;28;20431;-75
2022/03/08 13:50:08;;;;;;;23.23;18.50;;;;;;;;;;4997059;28;20902;-76
2022/03/08 13:52:35;;;;;;;21.20;18.83;;;;;;;;;;5000253;28;20408;-76
2022/03/08 13:55:01;;;;;;;23.77;19.30;;;;;;;;;;5009978;28;20404;-76
2022/03/08 13:57:27;;;;;;;21.70;19.27;;;;;;;;;;5018344;28;20413;-76
2022/03/08 13:59:53;;;;;;;24.10;19.17;;;;;;;;;;5003943;28;20428;-76
2022/03/08 14:02:20;;;;;;;23.73;19.27;;;;;;;;;;5014880;28;20439;-77
2022/03/08 14:04:47;;;;;;;20.80;18.00;;;;;;;;;;5003818;28;20720;-76
2022/03/08 14:07:20;;;;;;;21.17;17.37;;;;;;;;;;5013839;28;20436;-77
2022/03/08 14:09:56;;;;;;;22.53;18.87;;;;;;;;;;5006064;28;20417;-76
2022/03/08 14:12:22;;;;;;;19.57;17.40;;;;;;;;;;5020437;28;20414;-77
2022/03/08 14:15:01;;;;;;;20.60;18.50;;;;;;;;;;5006782;28;20966;-77